Time;durP1;ratioP1;P1;durP2;ratioP2;P2;SDS_P1;SDS_P2;PMS_P1;PMS_P2;Temp;Humidity;BMP_temperature;BMP_pressure;BME280_temperature;BME280_humidity;BME280_pressure;Samples;Min_cycle;Max_cycle;Signal;HPM_P1;HPM_P2
2024/03/29 00:00:13;;;;;;;4.23;0.50;;;;;;;17.44;54.42;100935.88;2084747;28;20732;-74
2024/03/29 00:01:14;;;;;;;0.77;0.40;;;;;;;17.47;55.01;100934.94;2084558;28;20189;-74
2024/03/29 00:02:14;;;;;;;1.60;0.30;;;;;;;17.04;55.05;100865.28;2087648;28;20558;-74
2024/03/29 00:03:14;;;;;;;1.43;0.30;;;;;;;17.55;54.94;100952.94;2085756;28;20185;-73
2024/03/29 00:04:15;;;;;;;0.80;0.30;;;;;;;17.54;55.31;100959.81;2087643;28;20191;-73
2024/03/29 00:05:15;;;;;;;1.83;0.40;;;;;;;17.52;55.39;100949.06;2085193;28;20430;-74
2024/03/29 00:06:16;;;;;;;2.27;0.40;;;;;;;17.56;55.01;100950.94;2084740;28;20252;-73
2024/03/29 00:07:16;;;;;;;1.63;0.40;;;;;;;17.53;54.97;100952.66;2085552;28;20223;-74
2024/03/29 00:08:17;;;;;;;1.43;0.50;;;;;;;17.45;55.44;100948.63;2085117;28;20197;-74
2024/03/29 00:09:17;;;;;;;1.50;0.60;;;;;;;17.45;55.08;100959.06;2084135;28;20265;-74
2024/03/29 00:10:18;;;;;;;1.43;0.30;;;;;;;16.55;55.67;100831.19;2095036;28;20193;-74
2024/03/29 00:11:18;;;;;;;1.27;0.40;;;;;;;17.37;56.08;100959.34;2084396;28;20200;-73
2024/03/29 00:12:19;;;;;;;0.77;0.20;;;;;;;17.30;56.67;100951.28;2084616;28;20248;-73
2024/03/29 00:13:19;;;;;;;2.20;0.40;;;;;;;17.34;56.09;100956.72;2085328;28;20284;-73
2024/03/29 00:14:20;;;;;;;2.63;0.33;;;;;;;17.34;55.71;100959.50;2089577;28;20188;-73
2024/03/29 00:15:21;;;;;;;2.20;0.43;;;;;;;17.31;55.88;100955.63;2084652;28;20191;-74
2024/03/29 00:16:25;;;;;;;2.40;0.23;;;;;;;17.28;56.06;100958.59;2087359;28;20696;-73
2024/03/29 00:17:25;;;;;;;2.43;0.40;;;;;;;17.30;56.59;100967.28;2084464;28;20189;-73
2024/03/29 00:18:26;;;;;;;0.87;0.20;;;;;;;17.31;56.97;100964.03;2084042;28;20544;-75
2024/03/29 00:19:26;;;;;;;0.97;0.30;;;;;;;17.37;55.71;100967.00;2085299;28;20230;-73
2024/03/29 00:20:29;;;;;;;2.77;0.50;;;;;;;17.36;55.84;100959.84;2085225;28;20283;-73
2024/03/29 00:21:29;;;;;;;1.57;0.43;;;;;;;17.36;55.68;100962.63;2083445;28;20176;-73
2024/03/29 00:22:30;;;;;;;0.57;0.20;;;;;;;17.36;55.67;100966.19;2086615;28;20524;-74
2024/03/29 00:23:30;;;;;;;1.27;0.40;;;;;;;17.34;55.95;100970.72;2085032;28;20450;-74
2024/03/29 00:24:31;;;;;;;1.73;0.40;;;;;;;17.31;56.57;100960.47;2085145;28;20206;-73
2024/03/29 00:25:31;;;;;;;0.63;0.23;;;;;;;17.32;56.08;100973.97;2084748;28;20198;-74
2024/03/29 00:26:50;;;;;;;2.50;0.77;;;;;;;17.32;56.39;100976.03;2090143;28;20363;-73
2024/03/29 00:27:50;;;;;;;0.87;0.30;;;;;;;17.26;56.65;100963.91;2085211;28;20215;-73
2024/03/29 00:28:51;;;;;;;2.33;0.40;;;;;;;17.19;56.61;100965.00;2084590;28;20422;-75
2024/03/29 00:29:55;;;;;;;1.40;0.40;;;;;;;17.19;56.62;100973.41;2086354;28;20185;-74
2024/03/29 00:30:55;;;;;;;1.67;0.47;;;;;;;17.15;57.21;100963.59;2086615;28;20190;-74
2024/03/29 00:31:55;;;;;;;1.47;0.40;;;;;;;17.16;56.94;100970.75;2083163;28;20444;-74
2024/03/29 00:32:56;;;;;;;2.10;0.53;;;;;;;17.13;56.75;100958.47;2084986;28;20197;-75
2024/03/29 00:33:56;;;;;;;1.37;0.40;;;;;;;17.19;56.88;100975.41;2084797;28;20224;-74
2024/03/29 00:34:57;;;;;;;0.20;0.20;;;;;;;17.22;56.98;100974.50;2083372;28;20757;-73
2024/03/29 00:35:58;;;;;;;0.90;0.40;;;;;;;17.20;57.00;100971.34;2091537;28;20187;-74
2024/03/29 00:36:58;;;;;;;3.57;0.33;;;;;;;17.26;56.88;100972.31;2086269;28;20452;-74
2024/03/29 00:37:59;;;;;;;1.40;0.40;;;;;;;16.94;57.15;100930.94;2089762;28;20189;-74
2024/03/29 00:38:59;;;;;;;1.53;0.30;;;;;;;17.23;57.09;100976.81;2088148;28;20190;-74
2024/03/29 00:40:00;;;;;;;0.90;0.30;;;;;;;17.20;57.30;100966.53;2084487;28;20243;-74
2024/03/29 00:41:01;;;;;;;1.63;0.40;;;;;;;17.21;57.56;100979.28;2084362;28;20481;-73
2024/03/29 00:42:02;;;;;;;0.70;0.30;;;;;;;17.17;57.72;100977.91;2084641;28;20182;-74
2024/03/29 00:43:02;;;;;;;1.70;0.40;;;;;;;17.15;57.70;100981.19;2086384;28;20272;-74
2024/03/29 00:44:03;;;;;;;1.90;0.50;;;;;;;16.52;57.95;100887.31;2085108;28;20227;-74
2024/03/29 00:45:04;;;;;;;2.63;0.50;;;;;;;17.15;58.53;100972.00;2084509;28;20244;-74
2024/03/29 00:46:05;;;;;;;1.13;0.50;;;;;;;16.71;57.90;100918.38;2089497;28;20196;-74
2024/03/29 00:47:05;;;;;;;1.40;0.30;;;;;;;17.14;58.76;100988.03;2084793;28;20190;-74
2024/03/29 00:48:06;;;;;;;1.33;0.40;;;;;;;16.48;58.53;100884.66;2085680;28;20300;-74
2024/03/29 00:49:06;;;;;;;2.10;0.20;;;;;;;17.19;58.55;100981.00;2087685;28;20366;-74
2024/03/29 00:50:09;;;;;;;0.73;0.30;;;;;;;17.20;58.46;100988.16;2090152;28;20627;-74
2024/03/29 00:51:09;;;;;;;1.43;0.33;;;;;;;17.17;58.23;100991.91;2086048;28;20195;-74
2024/03/29 00:52:10;;;;;;;0.50;0.40;;;;;;;16.89;58.00;100928.78;2084177;28;20439;-74
2024/03/29 00:53:10;;;;;;;1.73;0.40;;;;;;;17.25;57.98;100999.53;2083497;28;20245;-74
2024/03/29 00:54:11;;;;;;;1.23;0.30;;;;;;;17.26;57.89;100991.91;2085830;28;20190;-74
2024/03/29 00:55:12;;;;;;;2.63;0.30;;;;;;;17.28;57.73;100997.81;2089368;28;20507;-74
2024/03/29 00:56:12;;;;;;;1.20;0.43;;;;;;;17.27;58.11;100994.22;2085765;28;20827;-74
2024/03/29 00:57:15;;;;;;;1.90;0.40;;;;;;;17.25;59.12;100988.31;2084582;28;20202;-74
2024/03/29 00:58:16;;;;;;;1.97;0.50;;;;;;;16.95;58.93;100943.72;2085221;28;20203;-74
2024/03/29 00:59:17;;;;;;;2.37;0.40;;;;;;;17.27;59.84;100991.44;2084641;28;20434;-74
2024/03/29 01:00:17;;;;;;;1.20;0.30;;;;;;;17.18;59.67;100976.66;2084006;28;20492;-74
2024/03/29 01:01:18;;;;;;;3.10;0.20;;;;;;;17.25;59.09;100984.72;2086465;28;21015;-74
2024/03/29 01:02:18;;;;;;;0.93;0.30;;;;;;;17.22;58.78;100992.06;2083224;28;20227;-74
2024/03/29 01:03:19;;;;;;;1.37;0.50;;;;;;;17.19;59.27;100998.59;2087865;28;20275;-74
2024/03/29 01:04:19;;;;;;;1.43;0.20;;;;;;;17.19;59.89;100995.00;2089034;28;20191;-74
2024/03/29 01:05:20;;;;;;;2.10;0.43;;;;;;;16.35;59.03;100872.81;2083816;28;20188;-74
2024/03/29 01:06:20;;;;;;;1.73;0.30;;;;;;;17.09;59.32;100997.06;2084933;28;20629;-74
2024/03/29 01:07:21;;;;;;;1.50;0.50;;;;;;;17.16;59.86;100998.78;2085628;28;20360;-74
2024/03/29 01:08:23;;;;;;;0.73;0.30;;;;;;;17.09;59.56;100994.25;2084905;28;20647;-74
2024/03/29 01:09:23;;;;;;;0.40;0.20;;;;;;;17.08;59.40;101003.91;2084889;28;20280;-74
2024/03/29 01:10:24;;;;;;;1.30;0.23;;;;;;;17.06;59.52;101006.38;2085270;28;20438;-74
2024/03/29 01:11:24;;;;;;;0.77;0.50;;;;;;;17.07;59.78;101007.16;2083261;28;20185;-74
2024/03/29 01:12:25;;;;;;;0.93;0.30;;;;;;;17.06;59.92;101006.38;2084715;28;20267;-74
2024/03/29 01:13:25;;;;;;;1.77;0.50;;;;;;;16.96;60.05;101001.28;2085697;28;20194;-74
2024/03/29 01:14:26;;;;;;;2.53;0.47;;;;;;;17.03;60.18;101010.13;2084702;28;20571;-74
2024/03/29 01:15:26;;;;;;;1.33;0.37;;;;;;;16.95;60.58;100994.88;2085822;28;20690;-74
2024/03/29 01:16:27;;;;;;;0.50;0.20;;;;;;;17.03;60.83;101018.53;2090928;28;20596;-74
2024/03/29 01:17:28;;;;;;;0.87;0.40;;;;;;;17.04;61.08;101022.88;2091726;28;20726;-74
2024/03/29 01:18:29;;;;;;;1.57;0.37;;;;;;;17.05;61.55;101018.06;2085884;28;20192;-74
2024/03/29 01:19:29;;;;;;;2.50;0.40;;;;;;;16.98;61.28;101006.41;2085987;28;20453;-74
2024/03/29 01:20:30;;;;;;;1.63;0.40;;;;;;;17.02;61.34;101014.19;2089227;28;20189;-74
2024/03/29 01:21:31;;;;;;;1.27;0.47;;;;;;;16.82;61.14;101007.47;2085654;28;20292;-74
2024/03/29 01:22:31;;;;;;;1.20;0.50;;;;;;;16.98;61.49;101015.56;2083904;28;20291;-74
2024/03/29 01:23:32;;;;;;;0.90;0.30;;;;;;;16.84;61.44;101007.78;2090087;28;20177;-74
2024/03/29 01:24:32;;;;;;;0.87;0.33;;;;;;;16.74;62.10;101007.00;2086550;28;20189;-74
2024/03/29 01:25:33;;;;;;;0.53;0.20;;;;;;;16.79;63.03;101028.78;2084746;28;20191;-74
2024/03/29 01:26:34;;;;;;;3.23;0.33;;;;;;;16.88;63.52;101037.19;2085173;28;20225;-74
2024/03/29 01:27:35;;;;;;;0.83;0.30;;;;;;;16.88;62.71;101041.25;2084055;28;20970;-74
2024/03/29 01:28:35;;;;;;;0.70;0.37;;;;;;;16.90;64.26;101045.88;2084507;28;20250;-74
2024/03/29 01:29:37;;;;;;;1.37;0.50;;;;;;;16.85;65.14;101052.09;2086473;28;20201;-74
2024/03/29 01:30:37;;;;;;;1.20;0.60;;;;;;;16.85;64.48;101054.91;2088351;28;20689;-74
2024/03/29 01:31:38;;;;;;;2.80;0.50;;;;;;;16.79;63.86;101045.56;2086311;28;20937;-74
2024/03/29 01:32:38;;;;;;;1.40;0.70;;;;;;;16.79;63.56;101053.97;2086321;28;20195;-74
2024/03/29 01:33:40;;;;;;;1.93;0.70;;;;;;;16.64;63.51;101035.47;2085830;28;20319;-74
2024/03/29 01:34:41;;;;;;;1.57;0.50;;;;;;;16.77;63.26;101050.06;2085376;28;20661;-74
2024/03/29 01:35:41;;;;;;;1.00;0.50;;;;;;;16.75;63.48;101049.78;2091192;28;20438;-74
2024/03/29 01:36:42;;;;;;;1.20;0.43;;;;;;;16.77;65.00;101050.88;2087384;28;20184;-74
2024/03/29 01:37:43;;;;;;;3.47;0.60;;;;;;;16.73;66.09;101045.88;2089704;28;20189;-74
2024/03/29 01:38:45;;;;;;;2.00;0.60;;;;;;;16.81;66.32;101050.72;2087217;28;20775;-74
2024/03/29 01:39:46;;;;;;;1.17;0.50;;;;;;;16.80;65.53;101055.53;2085876;28;20219;-74
2024/03/29 01:40:46;;;;;;;1.30;0.60;;;;;;;16.76;64.83;101049.28;2085470;28;20455;-74
2024/03/29 01:41:47;;;;;;;1.60;0.40;;;;;;;16.70;65.15;101042.00;2084699;28;20295;-74
2024/03/29 01:42:47;;;;;;;0.83;0.30;;;;;;;16.74;64.53;101064.97;2086735;28;20210;-74
2024/03/29 01:43:48;;;;;;;5.03;0.70;;;;;;;16.70;64.95;101062.34;2088167;28;20253;-74
2024/03/29 01:44:49;;;;;;;0.33;0.23;;;;;;;16.68;65.56;101062.03;2084433;28;20625;-74
2024/03/29 01:45:53;;;;;;;1.87;0.53;;;;;;;15.92;65.83;100952.09;2086100;28;20544;-74
2024/03/29 01:46:54;;;;;;;0.90;0.43;;;;;;;16.60;65.78;101060.00;2086620;28;20445;-74
2024/03/29 01:47:54;;;;;;;0.37;0.30;;;;;;;16.60;66.65;101057.22;2086094;28;20457;-74
2024/03/29 01:48:55;;;;;;;0.90;0.40;;;;;;;16.64;66.31;101066.25;2086589;28;20190;-74
2024/03/29 01:49:56;;;;;;;0.50;0.33;;;;;;;15.95;66.34;100965.16;2092003;28;20183;-74
2024/03/29 01:50:58;;;;;;;1.10;0.53;;;;;;;16.63;67.02;101064.66;2086177;28;20215;-74
2024/03/29 01:51:59;;;;;;;1.50;0.40;;;;;;;16.66;66.66;101064.50;2084143;28;20211;-74
2024/03/29 01:53:00;;;;;;;1.23;0.30;;;;;;;16.64;66.59;101064.19;2085756;28;21019;-74
2024/03/29 01:54:01;;;;;;;1.30;0.50;;;;;;;16.14;69.18;100991.94;2087012;28;20658;-74
2024/03/29 01:55:01;;;;;;;2.60;0.60;;;;;;;16.69;70.57;101071.97;2085748;28;20196;-74
2024/03/29 01:56:02;;;;;;;3.40;1.00;;;;;;;16.00;69.70;100970.16;2087993;28;20646;-74
2024/03/29 01:57:04;;;;;;;2.50;0.80;;;;;;;16.70;69.74;101072.78;2085953;28;20202;-74
2024/03/29 01:58:04;;;;;;;2.47;0.50;;;;;;;16.70;68.32;101070.75;2086469;28;20211;-74
2024/03/29 01:59:11;;;;;;;0.77;0.30;;;;;;;16.52;68.55;101051.13;2086259;28;20446;-74
2024/03/29 02:00:12;;;;;;;3.77;0.87;;;;;;;16.64;69.23;101074.63;2084534;28;20242;-74
2024/03/29 02:01:13;;;;;;;1.63;0.60;;;;;;;16.62;68.64;101079.13;2085340;28;20919;-74
2024/03/29 02:02:14;;;;;;;1.20;0.40;;;;;;;16.47;69.44;101061.38;2094197;28;20207;-74
2024/03/29 02:03:15;;;;;;;1.97;0.50;;;;;;;16.64;69.56;101080.22;2088406;28;20442;-74
2024/03/29 02:04:17;;;;;;;0.47;0.33;;;;;;;16.68;68.05;101083.63;2087577;28;20443;-74
2024/03/29 02:05:18;;;;;;;1.50;0.30;;;;;;;16.04;68.03;100984.75;2084956;28;20450;-74
2024/03/29 02:06:19;;;;;;;1.07;0.33;;;;;;;16.65;69.37;101084.56;2085830;28;20478;-74
2024/03/29 02:07:19;;;;;;;1.33;0.20;;;;;;;16.66;71.73;101084.09;2085818;28;20434;-74
2024/03/29 02:08:20;;;;;;;1.53;0.40;;;;;;;16.19;70.14;101010.13;2087136;28;20744;-74
2024/03/29 02:09:20;;;;;;;1.97;0.40;;;;;;;16.66;69.15;101089.69;2087744;28;20226;-74
2024/03/29 02:10:21;;;;;;;1.30;0.40;;;;;;;15.80;69.41;100957.81;2087442;28;20198;-74
2024/03/29 02:11:22;;;;;;;0.50;0.30;;;;;;;16.68;69.07;101094.81;2084450;28;20204;-74
2024/03/29 02:12:23;;;;;;;1.00;0.50;;;;;;;16.65;69.13;101090.19;2085003;28;20507;-74
2024/03/29 02:13:24;;;;;;;1.00;0.40;;;;;;;16.63;69.03;101090.63;2088465;28;20238;-74
2024/03/29 02:14:25;;;;;;;0.77;0.40;;;;;;;16.64;68.81;101092.19;2085571;28;20687;-74
2024/03/29 02:15:25;;;;;;;2.47;0.40;;;;;;;16.66;70.96;101088.94;2085161;28;20837;-74
2024/03/29 02:16:26;;;;;;;1.70;0.40;;;;;;;16.68;71.90;101089.22;2085646;28;20239;-74
2024/03/29 02:17:27;;;;;;;2.87;0.50;;;;;;;16.70;71.10;101081.94;2095083;28;20192;-74
2024/03/29 02:18:27;;;;;;;1.13;0.30;;;;;;;16.72;70.41;101092.66;2087967;28;20274;-74
2024/03/29 02:19:28;;;;;;;1.07;0.30;;;;;;;16.70;70.19;101097.97;2085496;28;20210;-74
2024/03/29 02:20:29;;;;;;;1.00;0.40;;;;;;;16.69;71.45;101101.97;2089102;28;20192;-74
2024/03/29 02:21:33;;;;;;;1.43;0.40;;;;;;;16.68;73.56;101097.63;2084457;28;20206;-74
2024/03/29 02:22:40;;;;;;;2.03;0.40;;;;;;;16.66;72.54;101100.13;2085424;28;20462;-74
2024/03/29 02:23:46;;;;;;;1.37;0.50;;;;;;;16.63;73.00;101097.47;2092874;28;20465;-74
2024/03/29 02:24:47;;;;;;;1.63;0.50;;;;;;;16.63;76.23;101104.63;2085784;28;20816;-74
2024/03/29 02:25:48;;;;;;;2.03;0.37;;;;;;;16.58;75.55;101099.63;2090385;28;20539;-74
2024/03/29 02:26:49;;;;;;;0.47;0.30;;;;;;;16.54;74.33;101101.78;2086614;28;20444;-74
2024/03/29 02:27:51;;;;;;;1.37;0.20;;;;;;;16.49;73.99;101108.00;2085203;28;20196;-74
2024/03/29 02:28:52;;;;;;;2.40;0.40;;;;;;;16.47;73.97;101108.94;2085746;28;20184;-74
2024/03/29 02:29:52;;;;;;;1.37;0.20;;;;;;;16.40;73.40;101104.38;2086382;28;20435;-74
2024/03/29 02:30:53;;;;;;;0.97;0.40;;;;;;;16.34;74.19;101104.16;2085458;28;20178;-74
2024/03/29 02:31:53;;;;;;;2.63;0.60;;;;;;;16.32;74.59;101105.88;2086949;28;20192;-74
2024/03/29 02:32:54;;;;;;;1.30;0.37;;;;;;;16.12;74.61;101094.28;2085645;28;20553;-74
2024/03/29 02:33:54;;;;;;;0.63;0.30;;;;;;;15.70;74.59;101034.44;2085826;28;20239;-74
2024/03/29 02:34:55;;;;;;;0.80;0.20;;;;;;;16.20;75.22;101112.34;2085309;28;20686;-74
2024/03/29 02:35:55;;;;;;;0.97;0.30;;;;;;;16.19;75.65;101113.59;2085919;28;20655;-74
2024/03/29 02:36:59;;;;;;;1.20;0.30;;;;;;;15.86;75.93;101065.75;2091715;28;20665;-74
2024/03/29 02:37:59;;;;;;;0.87;0.40;;;;;;;16.16;76.05;101104.09;2091361;28;20207;-74
2024/03/29 02:39:00;;;;;;;2.03;0.40;;;;;;;15.51;76.17;101004.84;2086845;28;20443;-74
2024/03/29 02:40:00;;;;;;;0.60;0.30;;;;;;;16.14;76.51;101111.41;2086934;28;20283;-74
2024/03/29 02:41:01;;;;;;;0.37;0.27;;;;;;;16.12;76.73;101111.84;2087738;28;20200;-74
2024/03/29 02:42:01;;;;;;;1.07;0.43;;;;;;;16.10;77.48;101105.94;2085400;28;20212;-74
2024/03/29 02:43:02;;;;;;;0.63;0.27;;;;;;;16.07;77.50;101111.66;2085275;28;20213;-74
2024/03/29 02:44:03;;;;;;;1.47;0.40;;;;;;;16.04;78.40;101118.19;2088031;28;20194;-74
2024/03/29 02:45:04;;;;;;;2.10;0.33;;;;;;;15.49;78.70;101061.19;2085835;28;20202;-75
2024/03/29 02:46:04;;;;;;;2.73;0.30;;;;;;;15.79;79.38;101085.56;2088694;28;20192;-74
2024/03/29 02:47:05;;;;;;;1.60;0.20;;;;;;;15.79;79.65;101093.94;2086127;28;20947;-74
2024/03/29 02:48:06;;;;;;;2.30;0.50;;;;;;;15.91;80.12;101121.06;2084599;28;20249;-74
2024/03/29 02:49:06;;;;;;;2.57;0.23;;;;;;;15.95;81.46;101135.69;2086109;28;20198;-74
2024/03/29 02:50:10;;;;;;;1.10;0.30;;;;;;;15.87;81.16;101128.78;2092014;28;20218;-74
2024/03/29 02:51:10;;;;;;;3.03;0.50;;;;;;;15.88;81.71;101121.94;2086299;28;20192;-74
2024/03/29 02:52:11;;;;;;;4.30;0.50;;;;;;;15.11;81.81;101021.44;2085610;28;20474;-75
2024/03/29 02:53:12;;;;;;;1.73;0.30;;;;;;;15.82;82.09;101137.75;2087069;28;20439;-74
2024/03/29 02:54:12;;;;;;;0.57;0.27;;;;;;;15.82;82.25;101131.38;2091436;28;20219;-74
2024/03/29 02:55:13;;;;;;;4.57;0.30;;;;;;;15.81;82.52;101125.03;2085240;28;20226;-74
2024/03/29 02:56:18;;;;;;;3.37;0.47;;;;;;;15.85;82.54;101127.69;2087700;28;20192;-74
2024/03/29 02:57:19;;;;;;;0.70;0.30;;;;;;;15.83;82.47;101138.53;2085219;28;20457;-74
2024/03/29 02:58:19;;;;;;;1.40;0.60;;;;;;;15.77;82.84;101138.34;2088097;28;20489;-74
2024/03/29 02:59:20;;;;;;;2.53;0.40;;;;;;;15.80;82.28;101139.44;2085725;28;20609;-74
2024/03/29 03:00:20;;;;;;;1.90;0.40;;;;;;;15.81;82.62;101141.78;2086201;28;20693;-74
2024/03/29 03:01:21;;;;;;;3.20;0.40;;;;;;;15.83;82.49;101149.72;2090043;28;20227;-74
2024/03/29 03:02:22;;;;;;;0.80;0.47;;;;;;;15.84;82.84;101152.03;2093446;28;20278;-74
2024/03/29 03:03:26;;;;;;;0.80;0.30;;;;;;;15.83;82.75;101160.91;2088767;28;20565;-74
2024/03/29 03:04:27;;;;;;;2.53;0.43;;;;;;;15.39;83.35;101090.28;2085392;28;20204;-74
2024/03/29 03:05:27;;;;;;;3.53;0.50;;;;;;;15.82;82.44;101153.72;2084772;28;20439;-74
2024/03/29 03:06:27;;;;;;;4.10;0.40;;;;;;;15.81;82.79;101155.75;2085158;28;20522;-74
2024/03/29 03:11:26;;;;;;;1.50;0.40;;;;;;;15.95;82.28;101172.00;2085301;28;20435;-74
2024/03/29 03:12:26;;;;;;;1.83;0.30;;;;;;;15.99;81.70;101175.44;2082860;28;20462;-74
2024/03/29 03:13:28;;;;;;;2.33;0.33;;;;;;;16.02;81.79;101180.13;2086358;28;20200;-74
2024/03/29 03:14:29;;;;;;;3.03;0.40;;;;;;;16.04;81.56;101182.47;2088061;28;20192;-73
2024/03/29 03:15:29;;;;;;;2.30;0.40;;;;;;;16.06;81.85;101183.56;2085119;28;20443;-74
2024/03/29 03:16:30;;;;;;;2.40;0.43;;;;;;;15.81;81.41;101152.19;2086319;28;20382;-74
2024/03/29 03:17:31;;;;;;;3.17;0.70;;;;;;;16.04;81.79;101188.81;2084974;28;20685;-73
2024/03/29 03:18:31;;;;;;;3.77;0.40;;;;;;;16.05;82.59;101181.22;2085862;28;20195;-74
2024/03/29 03:19:32;;;;;;;2.93;0.60;;;;;;;16.01;81.99;101175.00;2088774;28;20919;-74
2024/03/29 03:20:33;;;;;;;1.50;0.30;;;;;;;16.06;82.17;101183.56;2087906;28;20610;-74
2024/03/29 03:21:35;;;;;;;0.97;0.33;;;;;;;15.64;82.04;101131.25;2083142;28;20193;-74
2024/03/29 03:22:35;;;;;;;0.43;0.30;;;;;;;15.82;82.62;101151.72;2084536;28;20245;-74
2024/03/29 03:23:36;;;;;;;1.43;0.37;;;;;;;16.06;81.97;101191.97;2086147;28;20453;-74
2024/03/29 03:24:36;;;;;;;1.30;0.37;;;;;;;16.09;81.87;101199.44;2085647;28;20195;-74
2024/03/29 03:25:37;;;;;;;2.03;0.33;;;;;;;16.04;81.96;101190.88;2084926;28;20180;-74
2024/03/29 03:26:38;;;;;;;0.90;0.20;;;;;;;16.05;82.99;101195.22;2087142;28;20697;-74
2024/03/29 03:27:39;;;;;;;2.07;0.40;;;;;;;16.06;82.67;101194.75;2085257;28;20663;-74
2024/03/29 03:28:39;;;;;;;2.13;0.40;;;;;;;16.06;82.68;101193.97;2086068;28;20454;-74
2024/03/29 03:29:40;;;;;;;0.63;0.30;;;;;;;16.05;82.33;101192.41;2085820;28;20734;-74
2024/03/29 03:30:40;;;;;;;0.80;0.20;;;;;;;15.84;82.35;101168.81;2085251;28;20196;-74
2024/03/29 03:31:41;;;;;;;1.17;0.40;;;;;;;15.94;84.06;101183.66;2083847;28;20668;-73
2024/03/29 03:32:41;;;;;;;0.30;0.23;;;;;;;15.21;84.47;101080.94;2086541;28;20192;-74
2024/03/29 03:33:42;;;;;;;2.87;0.40;;;;;;;15.66;85.16;101142.75;2085180;28;20317;-73
2024/03/29 03:34:42;;;;;;;0.50;0.30;;;;;;;15.44;84.77;101131.59;2085179;28;20275;-73
2024/03/29 03:35:43;;;;;;;2.93;0.50;;;;;;;15.87;84.76;101189.47;2084526;28;20192;-74
2024/03/29 03:36:44;;;;;;;5.40;0.60;;;;;;;15.14;84.35;101098.72;2085369;28;20661;-74
2024/03/29 03:37:44;;;;;;;1.03;0.40;;;;;;;15.74;84.51;101195.16;2091031;28;20984;-74
2024/03/29 03:38:45;;;;;;;1.27;0.30;;;;;;;15.72;84.96;101194.81;2089352;28;20673;-74
2024/03/29 03:39:45;;;;;;;1.53;0.50;;;;;;;15.71;84.56;101195.25;2086078;28;20658;-74
2024/03/29 03:40:46;;;;;;;1.93;0.40;;;;;;;15.72;85.69;101196.84;2085007;28;20199;-73
2024/03/29 03:41:46;;;;;;;0.93;0.40;;;;;;;15.65;85.24;101192.28;2083148;28;20273;-74
2024/03/29 03:42:47;;;;;;;1.07;0.40;;;;;;;15.62;85.68;101193.16;2085014;28;20212;-74
2024/03/29 03:43:47;;;;;;;0.87;0.33;;;;;;;15.62;86.00;101201.56;2086076;28;20194;-73
2024/03/29 03:44:48;;;;;;;1.67;0.50;;;;;;;15.54;86.55;101193.88;2092846;28;20193;-73
2024/03/29 03:45:48;;;;;;;0.67;0.40;;;;;;;15.42;86.63;101172.38;2092602;28;20273;-74
2024/03/29 03:46:49;;;;;;;1.43;0.37;;;;;;;15.67;86.60;101208.59;2088356;28;20237;-73
2024/03/29 03:47:49;;;;;;;3.70;0.43;;;;;;;15.35;86.41;101159.44;2086232;28;20195;-74
2024/03/29 03:48:50;;;;;;;1.50;0.50;;;;;;;15.61;86.88;101219.56;2084698;28;20262;-74
2024/03/29 03:49:50;;;;;;;1.20;0.40;;;;;;;15.60;87.27;101217.22;2088082;28;20253;-74
2024/03/29 03:50:51;;;;;;;1.07;0.57;;;;;;;14.78;86.68;101092.00;2085766;28;20188;-74
2024/03/29 03:51:52;;;;;;;1.87;0.40;;;;;;;15.58;87.24;101226.03;2083443;28;20281;-74
2024/03/29 03:52:52;;;;;;;1.83;0.40;;;;;;;15.56;87.14;101227.72;2084663;28;20187;-74
2024/03/29 03:53:52;;;;;;;2.40;0.40;;;;;;;15.58;87.42;101230.88;2085392;28;20224;-73
2024/03/29 03:54:53;;;;;;;0.50;0.30;;;;;;;15.56;87.24;101234.09;2085779;28;20186;-74
2024/03/29 03:55:53;;;;;;;1.20;0.47;;;;;;;15.62;86.87;101232.28;2087324;28;20189;-73
2024/03/29 03:56:54;;;;;;;1.70;0.50;;;;;;;15.62;87.16;101242.69;2084886;28;20193;-73
2024/03/29 03:57:54;;;;;;;1.00;0.40;;;;;;;15.60;86.69;101240.34;2085430;28;20202;-74
2024/03/29 03:58:55;;;;;;;0.97;0.40;;;;;;;15.62;86.96;101248.28;2085556;28;20196;-74
2024/03/29 03:59:55;;;;;;;3.37;0.43;;;;;;;15.64;86.82;101248.59;2085456;28;20254;-74
2024/03/29 04:00:56;;;;;;;3.40;0.47;;;;;;;15.68;86.73;101258.41;2084053;28;20180;-74
2024/03/29 04:01:56;;;;;;;2.67;0.33;;;;;;;15.72;86.10;101255.53;2086328;28;20211;-74
2024/03/29 04:02:57;;;;;;;0.70;0.30;;;;;;;15.73;85.91;101252.25;2084559;28;20212;-74
2024/03/29 04:03:57;;;;;;;2.47;0.40;;;;;;;15.76;85.52;101259.75;2085238;28;20276;-74
2024/03/29 04:04:58;;;;;;;0.40;0.30;;;;;;;15.78;84.94;101253.72;2084704;28;20246;-74
2024/03/29 04:06:03;;;;;;;1.43;0.50;;;;;;;15.77;85.21;101254.94;2088752;28;21004;-74
2024/03/29 04:07:03;;;;;;;1.20;0.50;;;;;;;15.78;84.94;101259.28;2084597;28;20188;-74
2024/03/29 04:08:04;;;;;;;1.57;0.30;;;;;;;15.81;85.07;101261.16;2087371;28;20474;-74
2024/03/29 04:09:05;;;;;;;1.60;0.50;;;;;;;15.81;84.79;101263.97;2085859;28;20192;-74
2024/03/29 04:10:06;;;;;;;1.10;0.50;;;;;;;15.28;85.13;101184.00;2090852;28;20452;-74
2024/03/29 04:11:06;;;;;;;1.80;0.30;;;;;;;15.85;84.82;101265.41;2087983;28;20206;-74
2024/03/29 04:12:07;;;;;;;3.80;0.40;;;;;;;15.88;84.99;101274.91;2088548;28;20661;-74
2024/03/29 04:13:07;;;;;;;3.93;0.40;;;;;;;15.85;84.88;101273.81;2084507;28;20646;-73
2024/03/29 04:14:08;;;;;;;1.80;0.50;;;;;;;15.88;84.94;101274.91;2091545;28;20860;-74
2024/03/29 04:15:08;;;;;;;0.73;0.40;;;;;;;15.47;85.43;101217.25;2084222;28;20200;-74
2024/03/29 04:16:09;;;;;;;1.10;0.50;;;;;;;15.94;84.58;101282.25;2084355;28;20224;-74
2024/03/29 04:17:09;;;;;;;2.43;0.40;;;;;;;16.00;84.61;101279.66;2085409;28;20620;-74
2024/03/29 04:18:10;;;;;;;1.60;0.40;;;;;;;16.01;83.94;101275.63;2085189;28;20208;-73
2024/03/29 04:19:10;;;;;;;0.20;0.20;;;;;;;16.07;84.32;101279.41;2085107;28;20285;-73
2024/03/29 04:20:11;;;;;;;2.77;0.30;;;;;;;15.64;84.11;101206.69;2091588;28;20197;-74
2024/03/29 04:21:11;;;;;;;3.80;0.37;;;;;;;16.11;84.01;101280.84;2084672;28;20253;-74
2024/03/29 04:22:12;;;;;;;1.73;0.30;;;;;;;16.15;83.98;101284.31;2084448;28;20646;-73
2024/03/29 04:23:12;;;;;;;1.30;0.30;;;;;;;16.14;83.94;101282.72;2083637;28;20663;-74
2024/03/29 04:24:13;;;;;;;3.37;0.43;;;;;;;16.20;83.22;101292.13;2085580;28;20195;-74
2024/03/29 04:25:14;;;;;;;0.30;0.27;;;;;;;16.17;82.66;101295.81;2084782;28;20277;-73
2024/03/29 04:26:15;;;;;;;3.50;0.30;;;;;;;16.18;83.17;101293.81;2093483;28;20636;-74
2024/03/29 04:27:16;;;;;;;1.57;0.37;;;;;;;16.25;83.37;101294.28;2086187;28;20441;-74
2024/03/29 04:28:16;;;;;;;0.90;0.40;;;;;;;16.27;82.49;101305.81;2085425;28;20579;-74
2024/03/29 04:29:17;;;;;;;1.10;0.40;;;;;;;15.90;82.57;101239.69;2085768;28;20200;-74
2024/03/29 04:30:17;;;;;;;1.50;0.43;;;;;;;16.27;82.56;101300.22;2084592;28;20624;-73
2024/03/29 04:31:18;;;;;;;1.97;0.40;;;;;;;16.31;82.86;101302.91;2083871;28;20184;-74
2024/03/29 04:32:18;;;;;;;0.93;0.30;;;;;;;15.78;82.20;101223.72;2086656;28;20188;-74
2024/03/29 04:33:19;;;;;;;1.60;0.40;;;;;;;16.30;81.92;101298.53;2084430;28;20599;-73
2024/03/29 04:34:19;;;;;;;1.57;0.30;;;;;;;16.31;82.33;101309.28;2086089;28;20603;-74
2024/03/29 04:35:20;;;;;;;0.53;0.37;;;;;;;16.34;82.15;101304.78;2084333;28;20203;-74
2024/03/29 04:36:20;;;;;;;2.60;0.30;;;;;;;16.42;82.16;101309.69;2084324;28;20277;-74
2024/03/29 04:37:21;;;;;;;0.20;0.20;;;;;;;16.45;82.05;101310.81;2084821;28;20186;-73
2024/03/29 04:38:22;;;;;;;1.37;0.20;;;;;;;16.43;82.03;101318.84;2094848;28;20197;-73
2024/03/29 04:39:22;;;;;;;1.97;0.43;;;;;;;16.43;82.36;101314.06;2092769;28;20901;-73
2024/03/29 04:40:23;;;;;;;0.57;0.27;;;;;;;16.48;82.13;101321.06;2084728;28;20911;-74
2024/03/29 04:41:23;;;;;;;1.77;0.20;;;;;;;16.48;82.04;101318.28;2084088;28;20211;-74
2024/03/29 04:42:24;;;;;;;1.90;0.70;;;;;;;16.11;81.82;101255.69;2083521;28;20709;-74
2024/03/29 04:43:29;;;;;;;4.43;0.50;;;;;;;15.67;82.10;101198.19;2085911;28;20672;-74
2024/03/29 04:44:29;;;;;;;1.43;0.50;;;;;;;16.44;82.42;101326.78;2087268;28;20220;-74
2024/03/29 04:45:29;;;;;;;4.60;0.50;;;;;;;16.47;82.47;101316.72;2087513;28;20972;-74
2024/03/29 04:46:31;;;;;;;1.43;0.40;;;;;;;16.50;82.53;101319.38;2087946;28;20191;-74